createdAt,value
2018-11-27T00:00:05.613Z,22.6
2018-11-27T00:02:05.371Z,22.6
2018-11-27T00:04:05.082Z,22.6
2018-11-27T00:06:04.952Z,22.6
2018-11-27T00:08:04.823Z,22.5
2018-11-27T00:10:05.221Z,22.6
2018-11-27T00:12:07.417Z,22.6
2018-11-27T00:14:05.115Z,22.6
2018-11-27T00:16:07.349Z,22.6
2018-11-27T00:18:04.767Z,22.6
2018-11-27T00:20:04.960Z,22.6
2018-11-27T00:22:04.681Z,22.6
2018-11-27T00:24:05.687Z,22.5
2018-11-27T00:26:05.437Z,22.5
2018-11-27T00:28:07.659Z,22.5
2018-11-27T00:30:04.890Z,22.5
2018-11-27T00:32:05.609Z,22.6
2018-11-27T00:34:05.022Z,22.5
2018-11-27T00:36:04.756Z,22.6
2018-11-27T00:38:05.536Z,22.6
2018-11-27T00:40:05.159Z,22.5
2018-11-27T00:42:07.504Z,22.5
2018-11-27T00:44:08.014Z,22.5
2018-11-27T00:46:05.340Z,22.6
2018-11-27T00:48:07.623Z,22.5
2018-11-27T00:50:04.935Z,22.5
2018-11-27T00:52:04.685Z,22.5
2018-11-27T00:54:05.415Z,22.5
2018-11-27T00:56:05.154Z,22.5
2018-11-27T00:58:13.006Z,22.5
2018-11-27T01:00:04.709Z,22.5
2018-11-27T01:02:04.996Z,22.5
2018-11-27T01:04:04.745Z,22.5
2018-11-27T01:06:10.561Z,22.5
2018-11-27T01:08:05.309Z,22.5
2018-11-27T01:10:04.977Z,22.5
2018-11-27T01:12:07.773Z,22.5
2018-11-27T01:14:07.985Z,22.5
2018-11-27T01:16:04.735Z,22.5
2018-11-27T01:18:08.168Z,22.6
2018-11-27T01:20:04.876Z,22.5
2018-11-27T01:22:05.141Z,22.6
2018-11-27T01:24:07.470Z,22.5
2018-11-27T01:26:05.259Z,22.5
2018-11-27T01:28:07.463Z,22.6
2018-11-27T01:30:07.693Z,22.6
2018-11-27T01:32:05.373Z,22.6
2018-11-27T01:34:05.672Z,22.6
2018-11-27T01:36:05.506Z,22.5
2018-11-27T01:38:05.278Z,22.6
2018-11-27T01:40:05.052Z,22.6
2018-11-27T01:42:07.279Z,22.5
2018-11-27T01:44:15.054Z,22.5
2018-11-27T01:46:04.824Z,22.6
2018-11-27T01:48:04.681Z,22.5
2018-11-27T01:50:05.355Z,22.5
2018-11-27T01:52:07.566Z,22.6
2018-11-27T01:54:05.283Z,22.6
2018-11-27T01:56:04.979Z,22.5
2018-11-27T01:58:04.650Z,22.5
2018-11-27T02:00:04.856Z,22.6
2018-11-27T02:02:05.415Z,22.6
2018-11-27T02:04:05.583Z,22.6
2018-11-27T02:06:05.247Z,22.6
2018-11-27T02:08:04.920Z,22.6
2018-11-27T02:10:04.618Z,22.6
2018-11-27T02:12:07.842Z,22.6
2018-11-27T02:14:13.185Z,22.6
2018-11-27T02:16:04.863Z,22.6
2018-11-27T02:18:09.799Z,22.6
2018-11-27T02:20:04.739Z,22.6
2018-11-27T02:22:07.953Z,22.6
2018-11-27T02:24:05.599Z,22.6
2018-11-27T02:26:05.266Z,22.6
2018-11-27T02:28:07.654Z,22.6
2018-11-27T02:30:10.437Z,22.5
2018-11-27T02:32:05.101Z,22.5
2018-11-27T02:34:04.743Z,22.6
2018-11-27T02:36:05.381Z,22.6
2018-11-27T02:38:05.400Z,22.6
2018-11-27T02:40:05.447Z,22.6
2018-11-27T02:42:10.218Z,22.6
2018-11-27T02:44:04.895Z,22.6
2018-11-27T02:46:05.101Z,22.6
2018-11-27T02:48:07.343Z,22.6
2018-11-27T02:50:05.030Z,22.6
2018-11-27T02:52:04.893Z,22.6
2018-11-27T02:54:05.678Z,22.6
2018-11-27T02:56:07.995Z,22.7
2018-11-27T02:58:04.737Z,22.7
2018-11-27T03:00:05.498Z,22.7
2018-11-27T03:02:05.204Z,22.6
2018-11-27T03:04:05.048Z,22.6
2018-11-27T03:06:04.763Z,22.7
2018-11-27T03:08:13.126Z,22.6
2018-11-27T03:10:04.809Z,22.6
2018-11-27T03:12:08.007Z,22.6
2018-11-27T03:14:05.217Z,22.6
2018-11-27T03:16:07.420Z,22.6
2018-11-27T03:18:05.387Z,22.6
2018-11-27T03:20:05.155Z,22.6
2018-11-27T03:22:07.398Z,22.6
2018-11-27T03:24:05.239Z,22.6
2018-11-27T03:26:12.498Z,22.7
2018-11-27T03:28:10.372Z,22.6
2018-11-27T03:30:07.585Z,22.6
2018-11-27T03:32:05.316Z,22.6
2018-11-27T03:34:05.552Z,22.6
2018-11-27T03:36:05.357Z,22.6
2018-11-27T03:38:05.183Z,22.6
2018-11-27T03:40:04.895Z,22.6
2018-11-27T03:42:05.572Z,22.6
2018-11-27T03:44:05.271Z,22.6
2018-11-27T03:46:04.944Z,22.6
2018-11-27T03:48:05.226Z,22.6
2018-11-27T03:50:04.970Z,22.6
2018-11-27T03:52:04.675Z,22.6
2018-11-27T03:54:05.410Z,22.6
2018-11-27T03:56:10.151Z,22.6
2018-11-27T03:58:07.867Z,22.6
2018-11-27T04:00:05.091Z,22.6
2018-11-27T04:02:04.815Z,22.6
2018-11-27T04:04:09.977Z,22.7
2018-11-27T04:06:04.765Z,22.7
2018-11-27T04:08:05.018Z,22.7
2018-11-27T04:10:05.246Z,22.6
2018-11-27T04:12:07.482Z,22.7
2018-11-27T04:14:05.283Z,22.7
2018-11-27T04:16:07.496Z,22.7
2018-11-27T04:18:04.900Z,22.7
2018-11-27T04:20:10.658Z,22.6
2018-11-27T04:22:04.918Z,22.6
2018-11-27T04:24:05.566Z,22.7
2018-11-27T04:26:10.331Z,22.6
2018-11-27T04:28:12.591Z,22.6
2018-11-27T04:30:07.407Z,22.7
2018-11-27T04:32:07.618Z,22.7
2018-11-27T04:34:07.858Z,22.7
2018-11-27T04:36:13.210Z,22.7
2018-11-27T04:38:05.427Z,22.7
2018-11-27T04:40:05.161Z,22.6
2018-11-27T04:42:04.935Z,22.7
2018-11-27T04:44:04.592Z,22.6
2018-11-27T04:46:04.965Z,22.7
2018-11-27T04:48:04.683Z,22.7
2018-11-27T04:50:05.458Z,22.7
2018-11-27T04:52:07.636Z,22.7
2018-11-27T04:54:05.315Z,22.7
2018-11-27T04:56:04.996Z,22.7
2018-11-27T04:58:07.282Z,22.7
2018-11-27T05:00:04.977Z,22.7
2018-11-27T05:02:04.774Z,22.7
2018-11-27T05:04:07.588Z,22.7
2018-11-27T05:06:05.282Z,22.7
2018-11-27T05:08:07.499Z,22.8
2018-11-27T05:10:05.194Z,22.8
2018-11-27T05:12:05.514Z,22.8
2018-11-27T05:14:05.262Z,22.7
2018-11-27T05:16:05.015Z,22.7
2018-11-27T05:18:04.934Z,22.7
2018-11-27T05:20:05.248Z,22.7
2018-11-27T05:22:04.957Z,22.6
2018-11-27T05:24:04.635Z,22.7
2018-11-27T05:26:07.859Z,22.7
2018-11-27T05:28:15.681Z,22.7
2018-11-27T05:30:05.455Z,22.7
2018-11-27T05:32:05.166Z,22.7
2018-11-27T05:34:07.418Z,22.7
2018-11-27T05:36:05.077Z,22.7
2018-11-27T05:38:04.784Z,22.7
2018-11-27T05:40:11.323Z,22.7
2018-11-27T05:42:04.871Z,22.7
2018-11-27T05:44:05.603Z,22.7
2018-11-27T05:46:04.803Z,22.7
2018-11-27T05:48:05.675Z,22.7
2018-11-27T05:50:05.481Z,22.7
2018-11-27T05:52:05.218Z,22.7
2018-11-27T05:54:04.919Z,22.7
2018-11-27T05:56:07.227Z,22.8
2018-11-27T05:58:04.929Z,22.8
2018-11-27T06:00:05.617Z,22.8
2018-11-27T06:02:07.868Z,22.8
2018-11-27T06:04:05.531Z,22.8
2018-11-27T06:06:07.960Z,22.8
2018-11-27T06:08:04.650Z,22.8
2018-11-27T06:10:05.317Z,22.8
2018-11-27T06:12:05.021Z,22.8
2018-11-27T06:14:05.202Z,22.8
2018-11-27T06:16:04.896Z,22.9
2018-11-27T06:18:04.754Z,23
2018-11-27T06:20:13.076Z,23
2018-11-27T06:22:04.774Z,23
2018-11-27T06:24:05.005Z,23.1
2018-11-27T06:26:04.728Z,23.1
2018-11-27T06:28:07.981Z,23.1
2018-11-27T06:30:04.729Z,23.1
2018-11-27T06:32:05.465Z,23.1
2018-11-27T06:34:05.161Z,23.1
2018-11-27T06:36:04.820Z,23
2018-11-27T06:38:05.530Z,23
2018-11-27T06:40:05.193Z,23
2018-11-27T06:42:04.886Z,23
2018-11-27T06:44:05.547Z,23
2018-11-27T06:46:04.735Z,23
2018-11-27T06:48:05.425Z,23
2018-11-27T06:50:10.269Z,23
2018-11-27T06:52:05.068Z,23
2018-11-27T06:54:04.748Z,23
2018-11-27T06:56:05.453Z,23
2018-11-27T06:58:10.155Z,23
2018-11-27T07:00:07.342Z,23
2018-11-27T07:02:05.558Z,23
2018-11-27T07:04:05.283Z,23
2018-11-27T07:06:04.961Z,23
2018-11-27T07:08:09.770Z,23
2018-11-27T07:10:05.539Z,23
2018-11-27T07:12:05.383Z,23
2018-11-27T07:14:04.651Z,23
2018-11-27T07:16:05.377Z,22.9
2018-11-27T07:18:07.834Z,22.8
2018-11-27T07:20:05.524Z,22.9
2018-11-27T07:22:07.746Z,22.8
2018-11-27T07:24:05.034Z,22.8
2018-11-27T07:26:12.363Z,22.8
2018-11-27T07:28:07.536Z,22.8
2018-11-27T07:30:05.215Z,22.8
2018-11-27T07:32:09.263Z,22.9
2018-11-27T07:34:05.218Z,22.9
2018-11-27T07:36:08.237Z,22.9
2018-11-27T07:38:04.934Z,22.9
2018-11-27T07:40:07.214Z,22.9
2018-11-27T07:42:04.891Z,22.9
2018-11-27T07:44:05.519Z,22.8
2018-11-27T07:46:05.179Z,22.9
2018-11-27T07:48:05.447Z,22.9
2018-11-27T07:50:05.135Z,22.9
2018-11-27T07:52:09.825Z,23
2018-11-27T07:54:05.574Z,22.9
2018-11-27T07:56:05.245Z,22.8
2018-11-27T07:58:04.892Z,22.8
2018-11-27T08:00:05.565Z,22.8
2018-11-27T08:02:07.784Z,22.9
2018-11-27T08:04:05.502Z,22.9
2018-11-27T08:06:05.203Z,22.9
2018-11-27T08:08:09.923Z,22.8
2018-11-27T08:10:05.604Z,22.9
2018-11-27T08:12:07.360Z,22.8
2018-11-27T08:14:05.102Z,22.8
2018-11-27T08:16:04.839Z,22.8
2018-11-27T08:18:04.724Z,22.8
2018-11-27T08:20:07.916Z,22.8
2018-11-27T08:22:08.152Z,22.8
2018-11-27T08:24:15.012Z,22.8
2018-11-27T08:26:04.941Z,22.8
2018-11-27T08:28:05.318Z,22.8
2018-11-27T08:30:05.009Z,22.8
2018-11-27T08:32:04.737Z,22.8
2018-11-27T08:34:05.611Z,22.8
2018-11-27T08:36:10.361Z,22.7
2018-11-27T08:38:07.812Z,22.8
2018-11-27T08:40:05.470Z,22.7
2018-11-27T08:42:05.200Z,22.7
2018-11-27T08:44:15.035Z,22.8
2018-11-27T08:46:04.736Z,22.8
2018-11-27T08:48:05.472Z,22.8
2018-11-27T08:50:04.635Z,22.7
2018-11-27T08:52:05.357Z,22.7
2018-11-27T08:54:05.226Z,22.7
2018-11-27T08:56:05.020Z,22.7
2018-11-27T08:58:04.704Z,22.8
2018-11-27T09:00:05.414Z,22.8
2018-11-27T09:02:04.663Z,22.8
2018-11-27T09:04:05.375Z,22.7
2018-11-27T09:06:07.596Z,22.8
2018-11-27T09:08:04.831Z,22.8
2018-11-27T09:10:05.527Z,22.8
2018-11-27T09:12:04.838Z,22.7
2018-11-27T09:14:05.519Z,22.8
2018-11-27T09:16:05.256Z,22.8
2018-11-27T09:18:05.141Z,22.8
2018-11-27T09:20:04.844Z,22.7
2018-11-27T09:22:05.551Z,22.8
2018-11-27T09:24:05.195Z,22.8
2018-11-27T09:26:04.941Z,22.8
2018-11-27T09:28:05.147Z,22.7
2018-11-27T09:30:07.367Z,22.7
2018-11-27T09:32:07.167Z,22.8
2018-11-27T09:34:07.387Z,22.8
2018-11-27T09:36:07.603Z,22.7
2018-11-27T09:38:05.336Z,22.8
2018-11-27T09:40:05.017Z,22.8
2018-11-27T09:42:04.691Z,22.8
2018-11-27T09:44:05.379Z,22.8
2018-11-27T09:46:05.087Z,22.8
2018-11-27T09:48:04.836Z,22.8
2018-11-27T09:50:08.084Z,22.8
2018-11-27T09:52:07.379Z,22.8
2018-11-27T09:54:05.110Z,22.8
2018-11-27T09:56:05.453Z,22.8
2018-11-27T09:58:05.158Z,22.8
2018-11-27T10:00:04.869Z,22.8
2018-11-27T10:02:05.547Z,22.8
2018-11-27T10:04:04.761Z,22.8
2018-11-27T10:06:05.073Z,22.8
2018-11-27T10:08:04.802Z,22.7
2018-11-27T10:10:05.506Z,22.7
2018-11-27T10:12:05.291Z,22.7
2018-11-27T10:14:08.017Z,22.8
2018-11-27T10:16:10.792Z,22.7
2018-11-27T10:18:04.676Z,22.8
2018-11-27T10:20:05.393Z,22.7
2018-11-27T10:22:04.700Z,22.8
2018-11-27T10:24:05.369Z,22.8
2018-11-27T10:26:05.610Z,22.8
2018-11-27T10:28:04.779Z,22.8
2018-11-27T10:30:08.111Z,22.8
2018-11-27T10:32:07.360Z,22.8
2018-11-27T10:34:17.669Z,22.8
2018-11-27T10:36:05.337Z,22.8
2018-11-27T10:38:05.023Z,22.9
2018-11-27T10:40:04.893Z,22.9
2018-11-27T10:42:05.565Z,22.9
2018-11-27T10:44:05.313Z,22.9
2018-11-27T10:46:10.157Z,22.9
2018-11-27T10:48:04.938Z,22.9
2018-11-27T10:50:05.618Z,22.8
2018-11-27T10:52:05.331Z,22.8
2018-11-27T10:54:07.535Z,22.9
2018-11-27T10:56:04.786Z,22.9
2018-11-27T10:58:05.041Z,22.9
2018-11-27T11:00:10.370Z,22.9
2018-11-27T11:02:05.058Z,22.9
2018-11-27T11:04:04.830Z,22.9
2018-11-27T11:06:05.531Z,22.9
2018-11-27T11:08:05.222Z,23.1
2018-11-27T11:10:04.913Z,23.2
2018-11-27T11:12:05.602Z,23.4
2018-11-27T11:14:05.301Z,23.5
2018-11-27T11:16:05.638Z,23.7
2018-11-27T11:18:05.536Z,23.8
2018-11-27T11:20:05.215Z,23.9
2018-11-27T11:22:07.409Z,24
2018-11-27T11:24:07.629Z,24.1
2018-11-27T11:26:04.817Z,24.1
2018-11-27T11:28:05.498Z,24.2
2018-11-27T11:30:05.249Z,24.2
2018-11-27T11:32:05.017Z,24.3
2018-11-27T11:34:04.699Z,24.2
2018-11-27T11:36:08.002Z,24
2018-11-27T11:38:04.788Z,24
2018-11-27T11:40:07.979Z,23.9
2018-11-27T11:42:07.198Z,23.8
2018-11-27T11:44:04.909Z,23.8
2018-11-27T11:46:04.641Z,23.7
2018-11-27T11:48:07.833Z,23.6
2018-11-27T11:50:05.489Z,23.6
2018-11-27T11:52:05.243Z,23.6
2018-11-27T11:54:05.045Z,23.6
2018-11-27T11:56:04.882Z,23.6
2018-11-27T11:58:08.139Z,23.5
2018-11-27T12:00:05.407Z,23.5
2018-11-27T12:02:07.669Z,23.5
2018-11-27T12:04:05.467Z,23.5
2018-11-27T12:06:05.165Z,23.5
2018-11-27T12:08:04.900Z,23.4
2018-11-27T12:10:08.108Z,23.4
2018-11-27T12:12:04.760Z,23.4
2018-11-27T12:14:05.473Z,23.4
2018-11-27T12:16:05.220Z,23.5
2018-11-27T12:18:05.137Z,23.4
2018-11-27T12:20:04.853Z,23.3
2018-11-27T12:22:05.642Z,23.4
2018-11-27T12:24:05.348Z,23.4
2018-11-27T12:26:05.611Z,23.4
2018-11-27T12:28:05.280Z,23.4
2018-11-27T12:30:05.476Z,23.4
2018-11-27T12:32:05.251Z,23.4
2018-11-27T12:34:04.936Z,23.4
2018-11-27T12:36:04.677Z,23.4
2018-11-27T12:38:04.935Z,23.4
2018-11-27T12:40:04.694Z,23.3
2018-11-27T12:42:04.992Z,23.3
2018-11-27T12:44:07.203Z,23.3
2018-11-27T12:46:15.263Z,23.3
2018-11-27T12:48:07.629Z,23.3
2018-11-27T12:50:07.934Z,23.3
2018-11-27T12:52:04.889Z,23.3
2018-11-27T12:54:05.596Z,23.3
2018-11-27T12:56:04.830Z,23.2
2018-11-27T12:58:04.679Z,23.1
2018-11-27T13:00:05.401Z,23.2
2018-11-27T13:02:05.339Z,23.2
2018-11-27T13:04:05.050Z,23.2
2018-11-27T13:06:04.745Z,23.2
2018-11-27T13:08:04.953Z,23.2
2018-11-27T13:10:07.193Z,23.2
2018-11-27T13:12:10.450Z,23.2
2018-11-27T13:14:05.144Z,23.2
2018-11-27T13:16:04.873Z,23.2
2018-11-27T13:18:07.303Z,23.2
2018-11-27T13:20:05.061Z,23.2
2018-11-27T13:22:04.796Z,23.2
2018-11-27T13:24:05.521Z,23.2
2018-11-27T13:26:05.227Z,23.1
2018-11-27T13:28:05.470Z,23.1
2018-11-27T13:30:05.153Z,23.1
2018-11-27T13:32:04.860Z,23.1
2018-11-27T13:34:05.020Z,23.1
2018-11-27T13:36:04.677Z,23.1
2018-11-27T13:38:05.387Z,23.1
2018-11-27T13:40:07.752Z,23.1
2018-11-27T13:42:05.533Z,23
2018-11-27T13:44:04.740Z,23.1
2018-11-27T13:46:05.532Z,23.1
2018-11-27T13:48:10.318Z,23
2018-11-27T13:50:05.033Z,23
2018-11-27T13:52:04.766Z,23
2018-11-27T13:54:07.987Z,23
2018-11-27T13:56:05.214Z,23
2018-11-27T13:58:04.928Z,23
2018-11-27T14:00:04.621Z,23
2018-11-27T14:02:13.035Z,23.1
2018-11-27T14:04:04.815Z,23.1
2018-11-27T14:06:05.056Z,23.1
2018-11-27T14:08:08.002Z,23.1
2018-11-27T14:10:04.761Z,23
2018-11-27T14:12:05.474Z,23
2018-11-27T14:14:07.714Z,23
2018-11-27T14:16:05.511Z,23
2018-11-27T14:18:07.127Z,23.1
2018-11-27T14:20:05.217Z,23.1
2018-11-27T14:22:07.684Z,23
2018-11-27T14:24:05.545Z,23
2018-11-27T14:26:04.807Z,23
2018-11-27T14:28:05.534Z,23
2018-11-27T14:30:07.773Z,23
2018-11-27T14:32:05.493Z,23
2018-11-27T14:34:05.222Z,23
2018-11-27T14:36:05.082Z,23
2018-11-27T14:38:04.821Z,23
2018-11-27T14:40:05.491Z,23
2018-11-27T14:42:05.300Z,23.1
2018-11-27T14:44:04.970Z,23.1
2018-11-27T14:46:04.630Z,23
2018-11-27T14:48:05.270Z,23
2018-11-27T14:50:04.923Z,23
2018-11-27T14:52:05.574Z,23
2018-11-27T14:54:05.308Z,23
2018-11-27T14:56:07.623Z,23
2018-11-27T14:58:05.508Z,23
2018-11-27T15:00:05.298Z,23
2018-11-27T15:02:05.095Z,23
2018-11-27T15:04:07.368Z,23
2018-11-27T15:06:05.052Z,23
2018-11-27T15:08:04.885Z,23
2018-11-27T15:10:05.586Z,22.9
2018-11-27T15:12:07.815Z,22.9
2018-11-27T15:14:05.451Z,22.9
2018-11-27T15:16:05.146Z,22.9
2018-11-27T15:18:05.024Z,22.9
2018-11-27T15:20:05.220Z,22.9
2018-11-27T15:22:04.926Z,22.9
2018-11-27T15:24:05.674Z,22.8
2018-11-27T15:26:08.026Z,22.8
2018-11-27T15:28:17.327Z,22.8
2018-11-27T15:30:05.005Z,22.8
2018-11-27T15:32:04.788Z,22.8
2018-11-27T15:34:10.561Z,22.8
2018-11-27T15:36:10.372Z,22.8
2018-11-27T15:38:05.050Z,22.8
2018-11-27T15:40:04.777Z,22.8
2018-11-27T15:42:08.068Z,22.8
2018-11-27T15:44:04.809Z,22.8
2018-11-27T15:46:05.525Z,22.8
2018-11-27T15:48:05.214Z,22.8
2018-11-27T15:50:05.441Z,22.8
2018-11-27T15:52:07.328Z,22.8
2018-11-27T15:54:05.079Z,22.8
2018-11-27T15:56:04.768Z,22.8
2018-11-27T15:58:04.956Z,22.8
2018-11-27T16:00:12.759Z,22.7
2018-11-27T16:02:05.118Z,22.7
2018-11-27T16:04:07.327Z,22.7
2018-11-27T16:06:05.048Z,22.7
2018-11-27T16:08:07.316Z,22.7
2018-11-27T16:10:05.008Z,22.7
2018-11-27T16:12:10.337Z,22.7
2018-11-27T16:14:05.289Z,22.7
2018-11-27T16:16:05.551Z,22.8
2018-11-27T16:18:08.202Z,22.7
2018-11-27T16:20:12.456Z,22.7
2018-11-27T16:22:07.169Z,22.7
2018-11-27T16:24:04.855Z,22.7
2018-11-27T16:26:05.139Z,22.7
2018-11-27T16:28:05.242Z,22.7
2018-11-27T16:30:04.981Z,22.7
2018-11-27T16:32:10.242Z,22.6
2018-11-27T16:34:05.052Z,22.6
2018-11-27T16:36:12.383Z,22.6
2018-11-27T16:38:07.620Z,22.6
2018-11-27T16:40:07.864Z,22.6
2018-11-27T16:42:05.611Z,22.6
2018-11-27T16:44:04.916Z,22.6
2018-11-27T16:46:04.711Z,22.6
2018-11-27T16:48:05.423Z,22.6
2018-11-27T16:50:05.187Z,22.6
2018-11-27T16:52:10.029Z,22.6
2018-11-27T16:54:04.733Z,22.6
2018-11-27T16:56:05.526Z,22.6
2018-11-27T16:58:07.874Z,22.6
2018-11-27T17:00:08.086Z,22.6
2018-11-27T17:02:05.322Z,22.6
2018-11-27T17:04:07.139Z,22.6
2018-11-27T17:06:04.827Z,22.6
2018-11-27T17:08:05.507Z,22.6
2018-11-27T17:10:04.734Z,22.6
2018-11-27T17:12:05.457Z,22.6
2018-11-27T17:14:05.142Z,22.6
2018-11-27T17:16:07.433Z,22.6
2018-11-27T17:18:04.853Z,22.6
2018-11-27T17:20:06.825Z,22.6
2018-11-27T17:22:05.567Z,22.6
2018-11-27T17:24:05.434Z,22.6
2018-11-27T17:26:05.192Z,22.6
2018-11-27T17:28:04.867Z,22.6
2018-11-27T17:30:05.085Z,22.6
2018-11-27T17:32:04.774Z,22.6
2018-11-27T17:34:05.560Z,22.6
2018-11-27T17:36:05.250Z,22.6
2018-11-27T17:38:04.981Z,22.6
2018-11-27T17:40:05.509Z,22.7
2018-11-27T17:42:04.734Z,22.8
2018-11-27T17:44:05.468Z,23
2018-11-27T17:46:04.727Z,23.2
2018-11-27T17:48:07.942Z,23.4
2018-11-27T17:50:09.945Z,23.5
2018-11-27T17:52:05.240Z,23.5
2018-11-27T17:54:05.155Z,23.5
2018-11-27T17:56:04.838Z,23.5
2018-11-27T17:58:05.571Z,23.6
2018-11-27T18:00:05.280Z,23.6
2018-11-27T18:02:04.947Z,23.6
2018-11-27T18:04:04.708Z,23.6
2018-11-27T18:06:04.681Z,23.8
2018-11-27T18:08:05.415Z,23.8
2018-11-27T18:10:04.630Z,23.8
2018-11-27T18:12:07.276Z,23.9
2018-11-27T18:14:04.926Z,23.9
2018-11-27T18:16:04.639Z,23.9
2018-11-27T18:18:05.570Z,23.9
2018-11-27T18:20:05.233Z,23.9
2018-11-27T18:22:04.939Z,24
2018-11-27T18:24:05.605Z,23.9
2018-11-27T18:26:05.411Z,23.9
2018-11-27T18:28:05.202Z,23.9
2018-11-27T18:30:04.886Z,24
2018-11-27T18:32:05.314Z,24
2018-11-27T18:34:04.982Z,24
2018-11-27T18:36:07.411Z,24
2018-11-27T18:38:05.399Z,24
2018-11-27T18:40:05.184Z,24
2018-11-27T18:42:07.430Z,24
2018-11-27T18:44:05.122Z,24
2018-11-27T18:46:05.038Z,24.1
2018-11-27T18:48:10.495Z,24.1
2018-11-27T18:50:05.143Z,24.1
2018-11-27T18:52:04.856Z,24.1
2018-11-27T18:54:05.938Z,24.1
2018-11-27T18:56:07.415Z,24.1
2018-11-27T18:58:07.251Z,24.2
2018-11-27T19:00:07.441Z,24.2
2018-11-27T19:02:05.173Z,24.2
2018-11-27T19:04:07.609Z,24.2
2018-11-27T19:06:05.540Z,24.2
2018-11-27T19:08:05.257Z,24.2
2018-11-27T19:10:06.111Z,24.3
2018-11-27T19:12:04.825Z,24.3
2018-11-27T19:14:10.684Z,24.4
2018-11-27T19:16:05.367Z,24.4
2018-11-27T19:18:04.782Z,24.4
2018-11-27T19:20:05.035Z,24.4
2018-11-27T19:22:05.705Z,24.4
2018-11-27T19:24:05.478Z,24.3
2018-11-27T19:26:04.744Z,24.4
2018-11-27T19:28:05.512Z,24.4
2018-11-27T19:30:07.763Z,24.4
2018-11-27T19:32:05.462Z,24.4
2018-11-27T19:34:05.197Z,24.3
2018-11-27T19:36:04.966Z,24.3
2018-11-27T19:38:04.940Z,24.3
2018-11-27T19:40:04.572Z,24.3
2018-11-27T19:42:05.327Z,24.2
2018-11-27T19:44:05.001Z,24.2
2018-11-27T19:46:04.685Z,24.3
2018-11-27T19:48:15.840Z,24.3
2018-11-27T19:50:07.702Z,24.2
2018-11-27T19:52:05.380Z,24.2
2018-11-27T19:54:07.626Z,24.2
2018-11-27T19:56:05.318Z,24.2
2018-11-27T19:58:05.111Z,24.3
2018-11-27T20:00:15.142Z,24.2
2018-11-27T20:02:04.814Z,24.2
2018-11-27T20:04:06.551Z,24.2
2018-11-27T20:06:05.235Z,24.2
2018-11-27T20:08:04.922Z,24.2
2018-11-27T20:10:07.142Z,24.3
2018-11-27T20:12:04.851Z,24.2
2018-11-27T20:14:10.617Z,24.3
2018-11-27T20:16:05.287Z,24.3
2018-11-27T20:18:05.307Z,24.3
2018-11-27T20:20:04.997Z,24.3
2018-11-27T20:22:04.697Z,24.3
2018-11-27T20:24:05.375Z,24.3
2018-11-27T20:26:07.679Z,24.3
2018-11-27T20:28:05.362Z,24.3
2018-11-27T20:30:05.013Z,24.3
2018-11-27T20:32:07.264Z,24.3
2018-11-27T20:34:04.950Z,24.3
2018-11-27T20:36:04.658Z,24.3
2018-11-27T20:38:05.455Z,24.3
2018-11-27T20:40:10.243Z,24.3
2018-11-27T20:42:05.114Z,24.3
2018-11-27T20:44:04.858Z,24.3
2018-11-27T20:46:05.594Z,24.3
2018-11-27T20:48:08.127Z,24.3
2018-11-27T20:50:04.778Z,24.3
2018-11-27T20:52:05.515Z,24.3
2018-11-27T20:54:05.277Z,24.3
2018-11-27T20:56:04.980Z,24.3
2018-11-27T20:58:05.176Z,24.3
2018-11-27T21:00:04.951Z,24.3
2018-11-27T21:02:04.706Z,24.3
2018-11-27T21:04:07.948Z,24.3
2018-11-27T21:06:07.252Z,24.3
2018-11-27T21:08:07.474Z,24.3
2018-11-27T21:10:05.094Z,24.3
2018-11-27T21:12:04.820Z,24.3
2018-11-27T21:14:04.794Z,24.3
2018-11-27T21:16:05.461Z,24.3
2018-11-27T21:18:05.552Z,24.3
2018-11-27T21:20:05.141Z,24.2
2018-11-27T21:22:04.888Z,24.2
2018-11-27T21:24:05.073Z,24.1
2018-11-27T21:26:07.356Z,24.1
2018-11-27T21:28:05.070Z,24.1
2018-11-27T21:30:05.293Z,24.1
2018-11-27T21:32:05.098Z,24.1
2018-11-27T21:34:09.831Z,24
2018-11-27T21:36:04.837Z,24
2018-11-27T21:38:05.634Z,24
2018-11-27T21:40:05.516Z,24
2018-11-27T21:42:05.262Z,24.1
2018-11-27T21:44:04.911Z,24
2018-11-27T21:46:07.507Z,24.1
2018-11-27T21:48:05.252Z,24
2018-11-27T21:50:07.578Z,24
2018-11-27T21:52:05.003Z,24
2018-11-27T21:54:04.756Z,24
2018-11-27T21:56:05.504Z,24.1
2018-11-27T21:58:07.772Z,24.1
2018-11-27T22:00:07.985Z,24.1
2018-11-27T22:02:04.715Z,24.1
2018-11-27T22:04:05.396Z,24
2018-11-27T22:06:05.074Z,24.1
2018-11-27T22:08:05.042Z,24.1
2018-11-27T22:10:04.749Z,24
2018-11-27T22:12:05.496Z,24
2018-11-27T22:14:05.209Z,24
2018-11-27T22:16:04.894Z,24
2018-11-27T22:18:04.772Z,24
2018-11-27T22:20:05.429Z,24.1
2018-11-27T22:22:05.125Z,24.1
2018-11-27T22:24:04.884Z,24.1
2018-11-27T22:26:10.631Z,24
2018-11-27T22:28:05.330Z,24
2018-11-27T22:30:05.090Z,24
2018-11-27T22:32:04.793Z,24
2018-11-27T22:34:05.527Z,24
2018-11-27T22:36:10.289Z,24
2018-11-27T22:38:07.520Z,24
2018-11-27T22:40:05.405Z,24
2018-11-27T22:42:05.112Z,24
2018-11-27T22:44:05.361Z,24
2018-11-27T22:46:05.722Z,24
2018-11-27T22:48:08.057Z,24
2018-11-27T22:50:04.755Z,24
2018-11-27T22:52:05.678Z,24
2018-11-27T22:54:05.467Z,24
2018-11-27T22:56:05.167Z,24
2018-11-27T22:58:04.907Z,24
2018-11-27T23:00:04.687Z,24
2018-11-27T23:02:10.484Z,24
2018-11-27T23:04:05.228Z,24
2018-11-27T23:06:10.501Z,23.9
2018-11-27T23:08:05.232Z,23.9
2018-11-27T23:10:05.487Z,23.9
2018-11-27T23:12:12.790Z,23.7
2018-11-27T23:14:05.469Z,23.6
2018-11-27T23:16:04.758Z,23.7
2018-11-27T23:18:07.928Z,23.6
2018-11-27T23:20:04.600Z,23.6
2018-11-27T23:22:05.337Z,23.6
2018-11-27T23:24:05.028Z,23.5
2018-11-27T23:26:07.783Z,23.5
2018-11-27T23:28:05.080Z,23.5
2018-11-27T23:30:04.892Z,23.5
2018-11-27T23:32:05.146Z,23.5
2018-11-27T23:34:05.140Z,23.5
2018-11-27T23:36:04.826Z,23.5
2018-11-27T23:38:05.610Z,23.5
2018-11-27T23:40:07.841Z,23.4
2018-11-27T23:42:08.033Z,23.4
2018-11-27T23:44:05.260Z,23.4
2018-11-27T23:46:04.991Z,23.4
2018-11-27T23:48:04.719Z,23.4
2018-11-27T23:50:07.923Z,23.3
2018-11-27T23:52:05.630Z,23.3
2018-11-27T23:54:07.830Z,23.3
2018-11-27T23:56:05.533Z,23.3
2018-11-27T23:58:07.270Z,23.3
